Time;durP1;ratioP1;P1;durP2;ratioP2;P2;SDS_P1;SDS_P2;PMS_P1;PMS_P2;Temp;Humidity;BMP_temperature;BMP_pressure;BME280_temperature;BME280_humidity;BME280_pressure;Samples;Min_cycle;Max_cycle;Signal;HPM_P1;HPM_P2
2022/10/26 00:00:39;;;;;;;1.38;0.57;;;20.00;49.70;;;;;;5052585;28;20215;-41
2022/10/26 00:03:10;;;;;;;1.85;0.68;;;20.00;49.60;;;;;;5032811;28;20200;-41
2022/10/26 00:05:41;;;;;;;1.40;0.50;;;20.00;49.60;;;;;;5031201;28;20270;-38
2022/10/26 00:08:12;;;;;;;1.63;0.77;;;20.10;49.50;;;;;;5032699;28;20573;-38
2022/10/26 00:10:45;;;;;;;1.77;0.80;;;20.10;49.50;;;;;;5031715;28;20196;-39
2022/10/26 00:13:15;;;;;;;0.73;0.50;;;20.10;49.70;;;;;;5032290;28;20696;-38
2022/10/26 00:15:46;;;;;;;1.45;0.55;;;20.10;49.60;;;;;;5031230;28;20204;-40
2022/10/26 00:18:17;;;;;;;1.77;0.60;;;20.20;49.60;;;;;;5031715;28;20586;-38
2022/10/26 00:20:48;;;;;;;0.70;0.60;;;20.20;49.60;;;;;;5030892;28;20204;-38
2022/10/26 00:23:18;;;;;;;0.98;0.63;;;20.20;49.60;;;;;;5032241;28;20207;-38
2022/10/26 00:25:57;;;;;;;1.50;0.73;;;20.30;49.70;;;;;;5032302;28;20552;-38
2022/10/26 00:28:28;;;;;;;1.33;0.73;;;20.30;49.70;;;;;;5036932;28;20202;-40
2022/10/26 00:31:02;;;;;;;1.13;0.50;;;20.30;49.70;;;;;;5051202;28;20196;-38
2022/10/26 00:33:33;;;;;;;0.70;0.52;;;20.30;49.70;;;;;;5032055;28;20757;-39
2022/10/26 00:36:04;;;;;;;1.60;0.80;;;20.30;49.50;;;;;;5040181;28;20279;-38
2022/10/26 00:38:35;;;;;;;2.95;0.90;;;20.40;49.50;;;;;;5051473;28;20659;-38
2022/10/26 00:41:07;;;;;;;1.98;0.63;;;20.40;49.50;;;;;;5050887;28;20187;-52
2022/10/26 00:43:40;;;;;;;1.00;0.68;;;20.40;49.50;;;;;;5046365;28;20565;-38
2022/10/26 00:46:15;;;;;;;1.30;0.70;;;20.50;49.70;;;;;;5032681;28;20200;-38
2022/10/26 00:48:48;;;;;;;1.02;0.60;;;20.50;49.70;;;;;;5051355;28;20593;-38
2022/10/26 00:51:25;;;;;;;1.38;0.70;;;20.50;49.80;;;;;;5051444;28;20209;-38
2022/10/26 00:53:57;;;;;;;0.73;0.50;;;20.50;49.80;;;;;;5051368;28;20225;-41
2022/10/26 00:56:31;;;;;;;1.55;0.70;;;20.60;49.80;;;;;;5048246;28;20208;-38
2022/10/26 00:59:07;;;;;;;0.77;0.63;;;20.60;49.80;;;;;;5040985;28;20199;-38
2022/10/26 01:01:41;;;;;;;0.80;0.60;;;20.60;49.70;;;;;;5047051;28;20214;-42
2022/10/26 01:04:12;;;;;;;1.38;0.70;;;20.70;49.90;;;;;;5035276;28;20187;-42
2022/10/26 01:06:44;;;;;;;2.13;0.60;;;20.70;49.90;;;;;;5044694;28;20216;-38
2022/10/26 01:09:15;;;;;;;1.02;0.50;;;20.70;49.80;;;;;;5031476;28;20226;-39
2022/10/26 01:11:48;;;;;;;2.03;0.60;;;20.80;49.70;;;;;;5031217;28;20192;-38
2022/10/26 01:14:20;;;;;;;2.35;0.73;;;20.80;49.70;;;;;;5044209;28;20211;-40
2022/10/26 01:17:01;;;;;;;1.10;0.82;;;20.80;49.70;;;;;;5044601;28;20212;-38
2022/10/26 01:20:08;;;;;;;1.17;0.57;;;20.90;49.70;;;;;;5031613;28;20643;-39
2022/10/26 01:22:42;;;;;;;0.70;0.50;;;20.90;49.60;;;;;;5030036;28;20204;-41
2022/10/26 01:25:27;;;;;;;2.60;1.00;;;21.00;49.70;;;;;;5031504;28;20215;-38
2022/10/26 01:28:02;;;;;;;1.13;0.47;;;21.00;49.70;;;;;;5031490;28;20220;-40
2022/10/26 01:30:41;;;;;;;1.05;0.50;;;21.00;49.60;;;;;;5050027;28;20199;-38
2022/10/26 01:33:28;;;;;;;1.38;0.80;;;21.00;49.70;;;;;;5048531;28;20215;-38
2022/10/26 01:36:08;;;;;;;1.35;0.80;;;21.10;49.70;;;;;;5048257;28;20191;-38
2022/10/26 01:38:45;;;;;;;1.73;0.70;;;21.10;49.80;;;;;;5048234;28;20195;-39
2022/10/26 01:41:21;;;;;;;1.88;0.68;;;21.10;49.80;;;;;;5048423;28;20210;-38
2022/10/26 01:43:56;;;;;;;2.45;0.85;;;21.20;49.80;;;;;;5048541;28;20562;-38
2022/10/26 01:46:32;;;;;;;2.28;0.75;;;21.20;49.80;;;;;;5049565;28;20211;-38
2022/10/26 01:49:06;;;;;;;2.30;0.70;;;21.30;49.70;;;;;;5049453;28;20205;-39
2022/10/26 01:51:38;;;;;;;1.15;0.73;;;21.30;49.60;;;;;;5049905;28;20195;-38
2022/10/26 01:54:09;;;;;;;1.65;0.90;;;21.30;49.50;;;;;;5048920;28;20242;-38
2022/10/26 01:56:42;;;;;;;1.20;0.70;;;21.40;49.50;;;;;;5049102;28;20215;-39
2022/10/26 01:59:28;;;;;;;1.17;0.80;;;21.40;49.50;;;;;;5048907;28;20705;-38
2022/10/26 02:02:29;;;;;;;2.67;0.80;;;21.40;49.50;;;;;;5049805;28;20584;-38
2022/10/26 02:05:17;;;;;;;1.40;0.65;;;21.50;49.60;;;;;;5035171;28;20202;-38
2022/10/26 02:07:55;;;;;;;1.70;0.80;;;21.50;49.50;;;;;;5049534;28;20215;-38
2022/10/26 02:10:35;;;;;;;1.48;0.82;;;21.50;49.40;;;;;;5049688;28;20199;-38
2022/10/26 02:13:12;;;;;;;2.20;0.70;;;21.60;49.40;;;;;;5049189;28;20218;-38
2022/10/26 02:15:49;;;;;;;2.15;0.80;;;21.60;49.30;;;;;;5049746;28;20562;-38
2022/10/26 02:18:30;;;;;;;1.25;0.90;;;21.70;49.30;;;;;;5049605;28;20219;-38
2022/10/26 02:21:08;;;;;;;1.33;0.60;;;21.70;49.20;;;;;;5049596;28;20202;-39
2022/10/26 02:23:41;;;;;;;1.60;0.65;;;21.80;49.10;;;;;;5049669;28;20242;-38
2022/10/26 02:26:14;;;;;;;1.33;0.80;;;21.80;49.10;;;;;;5049526;28;20195;-40
2022/10/26 02:28:48;;;;;;;1.52;0.70;;;21.90;49.10;;;;;;5050044;28;20196;-44
2022/10/26 02:31:21;;;;;;;1.65;0.77;;;21.90;49.20;;;;;;5052987;28;20836;-38
2022/10/26 02:33:53;;;;;;;2.00;0.90;;;21.90;49.20;;;;;;5053104;28;20227;-38
2022/10/26 02:36:29;;;;;;;0.90;0.52;;;22.00;49.30;;;;;;5053172;28;20713;-38
2022/10/26 02:39:02;;;;;;;1.75;0.82;;;22.00;49.30;;;;;;5053376;28;20202;-38
2022/10/26 02:41:34;;;;;;;1.90;0.93;;;22.10;49.20;;;;;;5053200;28;20199;-40
2022/10/26 02:44:10;;;;;;;1.48;0.70;;;22.10;49.10;;;;;;5051078;28;20560;-38
2022/10/26 02:46:42;;;;;;;1.33;0.80;;;22.20;49.10;;;;;;5033347;28;20215;-38
2022/10/26 02:49:13;;;;;;;2.13;0.73;;;22.20;49.00;;;;;;5033276;28;20660;-41
2022/10/26 02:51:51;;;;;;;2.05;0.77;;;22.20;48.90;;;;;;5033078;28;20211;-39
2022/10/26 02:54:30;;;;;;;2.15;0.82;;;22.30;48.90;;;;;;5048613;28;20222;-39
2022/10/26 02:57:05;;;;;;;0.88;0.60;;;22.40;48.80;;;;;;5053187;28;20219;-38
2022/10/26 02:59:39;;;;;;;1.42;0.90;;;22.40;48.80;;;;;;5052545;28;20195;-38
2022/10/26 03:02:10;;;;;;;2.40;0.77;;;22.40;48.70;;;;;;5053628;28;20207;-38
2022/10/26 03:04:41;;;;;;;1.15;0.55;;;22.50;48.70;;;;;;5050145;28;20566;-39
2022/10/26 03:07:13;;;;;;;1.42;0.70;;;22.60;48.80;;;;;;5033769;28;20216;-38
2022/10/26 03:09:44;;;;;;;1.00;0.60;;;22.60;48.80;;;;;;5033139;28;20204;-38
2022/10/26 03:12:15;;;;;;;3.25;0.70;;;22.60;48.70;;;;;;5049058;28;20192;-38
2022/10/26 03:14:45;;;;;;;2.72;0.80;;;22.70;48.70;;;;;;5053910;28;20219;-38
2022/10/26 03:17:16;;;;;;;1.48;0.82;;;22.80;48.70;;;;;;5053329;28;20219;-38
2022/10/26 03:19:47;;;;;;;2.08;1.05;;;22.80;48.70;;;;;;5052851;28;20562;-38
2022/10/26 03:22:19;;;;;;;1.23;0.73;;;22.90;48.60;;;;;;5048978;28;20194;-41
2022/10/26 03:24:50;;;;;;;1.90;0.50;;;22.90;48.50;;;;;;5052893;28;20651;-38
2022/10/26 03:27:21;;;;;;;1.88;0.80;;;23.00;48.40;;;;;;5052936;28;20222;-39
2022/10/26 03:29:51;;;;;;;1.40;0.40;;;23.00;48.30;;;;;;5053609;28;20203;-41
2022/10/26 03:32:22;;;;;;;1.85;0.77;;;23.10;48.40;;;;;;5052530;28;20199;-41
2022/10/26 03:34:53;;;;;;;0.93;0.47;;;23.10;48.20;;;;;;5053092;28;20231;-42
2022/10/26 03:37:26;;;;;;;1.63;0.60;;;23.10;48.10;;;;;;5051673;28;20222;-40
2022/10/26 03:39:56;;;;;;;0.82;0.65;;;23.20;48.10;;;;;;5052568;28;20192;-38
2022/10/26 03:42:27;;;;;;;1.05;0.52;;;23.20;48.00;;;;;;5049231;28;20198;-39
2022/10/26 03:44:58;;;;;;;1.33;0.60;;;23.30;47.90;;;;;;5032781;28;20678;-38
2022/10/26 03:47:28;;;;;;;0.73;0.52;;;23.30;47.90;;;;;;5037967;28;20207;-42
2022/10/26 03:49:59;;;;;;;0.98;0.50;;;23.30;47.90;;;;;;5053001;28;20193;-39
2022/10/26 03:52:32;;;;;;;1.20;0.80;;;23.30;47.80;;;;;;5053362;28;20199;-41
2022/10/26 03:55:03;;;;;;;1.30;0.60;;;23.40;47.80;;;;;;5052345;28;20227;-41
2022/10/26 03:57:33;;;;;;;1.65;0.60;;;23.40;47.80;;;;;;5050165;28;20227;-41
2022/10/26 04:00:04;;;;;;;1.02;0.60;;;23.40;47.70;;;;;;5051215;28;20765;-41
2022/10/26 04:02:35;;;;;;;1.05;0.50;;;23.50;47.80;;;;;;5052005;28;20572;-41
2022/10/26 04:05:06;;;;;;;0.93;0.52;;;23.50;47.70;;;;;;5042665;28;20196;-44
2022/10/26 04:07:38;;;;;;;0.80;0.63;;;23.50;47.70;;;;;;5034443;28;20216;-41
2022/10/26 04:10:10;;;;;;;1.65;0.63;;;23.50;47.60;;;;;;5053203;28;20203;-41
2022/10/26 04:12:41;;;;;;;1.15;0.70;;;23.60;47.60;;;;;;5051302;28;20195;-39
2022/10/26 04:15:12;;;;;;;0.85;0.70;;;23.60;48.10;;;;;;5052087;28;20226;-38
2022/10/26 04:17:42;;;;;;;1.20;0.65;;;23.70;47.50;;;;;;5049406;28;20227;-41
2022/10/26 04:20:14;;;;;;;1.63;0.43;;;23.70;47.40;;;;;;5032154;28;20206;-42
2022/10/26 04:22:46;;;;;;;0.73;0.50;;;23.60;47.30;;;;;;5034584;28;20196;-44
2022/10/26 04:25:17;;;;;;;0.60;0.50;;;23.70;47.30;;;;;;5051794;28;20294;-41
2022/10/26 04:27:48;;;;;;;1.70;0.50;;;23.70;47.30;;;;;;5051200;28;20212;-42
2022/10/26 04:30:18;;;;;;;1.77;0.70;;;23.80;47.40;;;;;;5031959;28;20200;-41
2022/10/26 04:32:49;;;;;;;1.77;0.70;;;23.80;47.20;;;;;;5031755;28;20199;-42
2022/10/26 04:35:20;;;;;;;0.57;0.57;;;23.80;47.20;;;;;;5031827;28;20219;-41
2022/10/26 04:37:53;;;;;;;0.60;0.50;;;23.80;47.20;;;;;;5032213;28;20596;-41
2022/10/26 04:40:23;;;;;;;0.98;0.50;;;23.80;47.20;;;;;;5031545;28;20228;-41
2022/10/26 04:42:54;;;;;;;1.27;0.63;;;23.90;47.20;;;;;;5034236;28;20203;-41
2022/10/26 04:45:26;;;;;;;1.65;0.80;;;23.90;47.20;;;;;;5048483;28;20202;-41
2022/10/26 04:48:04;;;;;;;1.00;0.50;;;23.90;47.10;;;;;;5042091;28;20620;-41
2022/10/26 04:50:36;;;;;;;0.63;0.50;;;24.00;47.10;;;;;;5031190;28;20199;-41
2022/10/26 04:53:09;;;;;;;1.50;0.82;;;24.00;47.10;;;;;;5034899;28;20191;-41
2022/10/26 04:55:39;;;;;;;1.17;0.50;;;24.00;47.00;;;;;;5051559;28;20199;-41
2022/10/26 04:58:10;;;;;;;1.00;0.50;;;24.00;47.00;;;;;;5051142;28;20236;-42
2022/10/26 05:00:41;;;;;;;0.73;0.38;;;24.00;47.00;;;;;;5050907;28;20211;-41
2022/10/26 05:03:12;;;;;;;1.13;0.40;;;24.00;46.90;;;;;;5050753;28;20194;-41
2022/10/26 05:05:43;;;;;;;2.03;0.60;;;24.00;46.80;;;;;;5051576;28;20195;-42
2022/10/26 05:08:16;;;;;;;1.08;0.60;;;24.00;46.80;;;;;;5049712;28;20222;-42
2022/10/26 05:10:51;;;;;;;1.95;0.60;;;23.90;46.70;;;;;;5051321;28;20196;-41
2022/10/26 05:13:21;;;;;;;1.80;0.55;;;23.90;46.70;;;;;;5050583;28;20563;-41
2022/10/26 05:15:55;;;;;;;1.05;0.30;;;23.90;47.30;;;;;;5051646;28;20202;-40
2022/10/26 05:18:26;;;;;;;0.50;0.40;;;23.90;46.60;;;;;;5044971;28;20216;-46
2022/10/26 05:20:57;;;;;;;0.80;0.40;;;23.90;46.60;;;;;;5031065;28;20203;-41
2022/10/26 05:23:29;;;;;;;1.00;0.50;;;23.90;46.70;;;;;;5036300;28;20639;-40
2022/10/26 05:26:00;;;;;;;1.08;0.57;;;23.90;46.80;;;;;;5050192;28;20200;-39
2022/10/26 05:28:31;;;;;;;1.10;0.60;;;24.00;46.80;;;;;;5050010;28;20196;-43
2022/10/26 05:31:02;;;;;;;1.05;0.63;;;23.90;46.60;;;;;;5050508;28;20867;-40
2022/10/26 05:33:32;;;;;;;1.55;0.68;;;23.90;47.20;;;;;;5050153;28;20196;-41
2022/10/26 05:36:03;;;;;;;0.50;0.30;;;23.90;46.60;;;;;;5050413;28;20661;-48
2022/10/26 05:38:36;;;;;;;1.17;0.50;;;23.90;46.60;;;;;;5045725;28;20196;-45
2022/10/26 05:41:06;;;;;;;0.82;0.45;;;23.90;46.50;;;;;;5030143;28;20200;-40
2022/10/26 05:43:37;;;;;;;2.35;0.60;;;23.90;46.60;;;;;;5030674;28;20188;-43
2022/10/26 05:46:08;;;;;;;0.38;0.35;;;23.90;46.60;;;;;;5029934;28;20655;-41
2022/10/26 05:48:39;;;;;;;1.05;0.50;;;23.90;46.60;;;;;;5045831;28;20195;-40
2022/10/26 05:51:11;;;;;;;1.33;0.60;;;23.80;46.60;;;;;;5050636;28;20651;-41
2022/10/26 05:53:43;;;;;;;1.30;0.73;;;23.80;46.60;;;;;;5049594;28;20187;-43
2022/10/26 05:56:21;;;;;;;1.38;0.60;;;23.80;46.60;;;;;;5050578;28;20780;-43
2022/10/26 05:58:52;;;;;;;1.27;0.60;;;23.80;46.60;;;;;;5050208;28;20206;-40
2022/10/26 06:01:34;;;;;;;0.80;0.40;;;23.80;46.70;;;;;;5049977;28;20557;-40
2022/10/26 06:04:18;;;;;;;1.38;0.50;;;23.80;46.70;;;;;;5051601;28;20195;-42
2022/10/26 06:06:54;;;;;;;1.30;0.93;;;23.80;46.70;;;;;;5054692;28;20203;-40
2022/10/26 06:09:27;;;;;;;1.80;1.02;;;23.80;46.70;;;;;;5043837;28;20640;-38
2022/10/26 06:12:04;;;;;;;4.38;2.00;;;23.80;46.70;;;;;;5034715;28;20204;-38
2022/10/26 06:14:35;;;;;;;4.47;2.00;;;23.80;46.80;;;;;;5046033;28;20219;-37
2022/10/26 06:17:19;;;;;;;13.23;5.53;;;23.80;46.80;;;;;;5054889;28;20706;-40
2022/10/26 06:20:18;;;;;;;10.15;6.18;;;23.80;46.80;;;;;;5054324;28;20195;-42
2022/10/26 06:23:02;;;;;;;5.60;3.30;;;23.70;46.70;;;;;;5054544;28;20199;-40
2022/10/26 06:25:45;;;;;;;6.30;3.58;;;23.70;46.70;;;;;;5034136;28;20277;-40
2022/10/26 06:28:26;;;;;;;5.47;2.90;;;23.70;46.80;;;;;;5043394;28;20227;-40
2022/10/26 06:30:58;;;;;;;4.97;3.50;;;23.70;46.90;;;;;;5034543;28;20287;-40
2022/10/26 06:33:30;;;;;;;6.45;3.72;;;23.70;46.80;;;;;;5034682;28;20196;-40
2022/10/26 06:36:14;;;;;;;9.70;5.05;;;23.70;47.50;;;;;;5034215;28;20227;-40
2022/10/26 06:38:47;;;;;;;5.57;3.40;;;23.70;46.90;;;;;;5033815;28;20254;-38
2022/10/26 06:41:21;;;;;;;8.73;4.13;;;23.70;46.90;;;;;;5034270;28;20200;-41
2022/10/26 06:43:52;;;;;;;8.55;4.53;;;23.70;46.90;;;;;;5033427;28;20208;-43
2022/10/26 06:46:33;;;;;;;10.13;4.82;;;23.60;46.90;;;;;;5039015;28;20201;-40
2022/10/26 06:49:12;;;;;;;7.88;4.47;;;23.60;46.90;;;;;;5046188;28;20200;-40
2022/10/26 06:51:51;;;;;;;10.93;5.28;;;23.60;46.90;;;;;;5034387;28;20199;-41
2022/10/26 06:54:28;;;;;;;10.77;4.85;;;23.60;46.90;;;;;;5044343;28;20683;-41
2022/10/26 06:57:01;;;;;;;10.65;5.40;;;23.60;46.90;;;;;;5033813;28;20231;-40
2022/10/26 06:59:39;;;;;;;9.85;5.18;;;23.50;46.90;;;;;;5047593;28;20200;-41
2022/10/26 07:02:10;;;;;;;9.40;4.32;;;23.50;46.90;;;;;;5050519;28;20778;-38
2022/10/26 07:04:41;;;;;;;8.27;4.65;;;23.50;46.90;;;;;;5052472;28;20204;-39
2022/10/26 07:07:13;;;;;;;8.60;4.80;;;23.50;47.00;;;;;;5053807;28;20632;-46
2022/10/26 07:09:44;;;;;;;8.13;4.47;;;23.50;47.00;;;;;;5053129;28;20192;-38
2022/10/26 07:12:17;;;;;;;7.22;4.65;;;23.50;47.00;;;;;;5053212;28;20290;-40
2022/10/26 07:14:48;;;;;;;12.27;4.25;;;23.40;47.00;;;;;;5042664;28;20326;-40
2022/10/26 07:17:18;;;;;;;11.25;4.80;;;23.40;47.00;;;;;;5033040;28;20216;-40
2022/10/26 07:19:49;;;;;;;8.77;4.35;;;23.40;47.00;;;;;;5032764;28;20192;-41
2022/10/26 07:22:20;;;;;;;7.78;4.65;;;23.40;47.00;;;;;;5033251;28;20204;-40
2022/10/26 07:24:51;;;;;;;8.10;4.07;;;23.40;47.00;;;;;;5033141;28;20203;-40
2022/10/26 07:27:23;;;;;;;8.65;4.22;;;23.40;47.00;;;;;;5036655;28;20203;-41
2022/10/26 07:29:54;;;;;;;7.57;4.10;;;23.30;47.00;;;;;;5052655;28;20195;-40
2022/10/26 07:32:24;;;;;;;8.23;4.45;;;23.30;47.00;;;;;;5052662;28;20207;-38
2022/10/26 07:34:55;;;;;;;8.07;4.40;;;23.30;47.10;;;;;;5052866;28;20219;-38
2022/10/26 07:37:26;;;;;;;7.70;4.38;;;23.30;47.10;;;;;;5052668;28;20223;-38
2022/10/26 07:39:57;;;;;;;6.25;3.92;;;23.20;47.10;;;;;;5043015;28;20283;-42
2022/10/26 07:42:29;;;;;;;8.43;4.20;;;23.20;47.10;;;;;;5032396;28;20680;-39
2022/10/26 07:45:00;;;;;;;7.85;4.30;;;23.20;47.10;;;;;;5042971;28;20199;-38
2022/10/26 07:47:30;;;;;;;7.95;4.10;;;23.20;47.10;;;;;;5046669;28;20737;-41
2022/10/26 07:50:03;;;;;;;6.70;3.65;;;23.20;47.10;;;;;;5032458;28;20199;-37
2022/10/26 07:52:35;;;;;;;6.55;3.47;;;23.10;47.10;;;;;;5033111;28;20258;-41
2022/10/26 07:55:06;;;;;;;7.95;4.00;;;23.10;47.10;;;;;;5031922;28;20259;-40
2022/10/26 07:57:39;;;;;;;8.52;4.00;;;23.10;47.10;;;;;;5032767;28;20216;-41
2022/10/26 08:00:12;;;;;;;7.38;4.00;;;23.10;47.10;;;;;;5051506;28;20651;-40
2022/10/26 08:02:42;;;;;;;5.60;3.58;;;23.00;47.10;;;;;;5051899;28;20647;-40
2022/10/26 08:05:13;;;;;;;5.78;3.38;;;23.10;47.20;;;;;;5051485;28;20660;-41
2022/10/26 08:07:45;;;;;;;5.25;3.15;;;23.00;47.10;;;;;;5051679;28;20215;-40
2022/10/26 08:10:16;;;;;;;6.32;3.50;;;23.00;47.20;;;;;;5041338;28;20196;-37
2022/10/26 08:12:49;;;;;;;8.23;3.50;;;22.90;47.10;;;;;;5032237;28;20200;-38
2022/10/26 08:15:20;;;;;;;6.03;3.33;;;22.90;47.20;;;;;;5032395;28;20227;-37
2022/10/26 08:17:50;;;;;;;6.90;3.47;;;22.90;47.20;;;;;;5032358;28;20223;-38
2022/10/26 08:20:21;;;;;;;6.25;3.55;;;22.90;47.20;;;;;;5032766;28;20305;-38
2022/10/26 08:22:52;;;;;;;6.03;3.13;;;22.90;47.20;;;;;;5032132;28;20206;-38
2022/10/26 08:25:22;;;;;;;6.50;3.25;;;22.90;47.20;;;;;;5043144;28;20199;-38
2022/10/26 08:27:56;;;;;;;5.97;3.50;;;22.80;47.20;;;;;;5051070;28;20302;-37
2022/10/26 08:30:26;;;;;;;5.55;3.08;;;22.80;47.20;;;;;;5051394;28;20635;-38
2022/10/26 08:33:02;;;;;;;5.15;3.05;;;22.70;47.10;;;;;;5051425;28;20204;-38
2022/10/26 08:35:33;;;;;;;5.30;2.92;;;22.70;47.20;;;;;;5050744;28;20226;-38
2022/10/26 08:38:03;;;;;;;4.90;2.70;;;22.70;47.20;;;;;;5051563;28;20222;-40
2022/10/26 08:40:35;;;;;;;5.28;2.90;;;22.70;47.30;;;;;;5039534;28;20185;-41
2022/10/26 08:43:17;;;;;;;7.53;3.38;;;22.70;47.20;;;;;;5031184;28;20199;-39
2022/10/26 08:45:53;;;;;;;4.50;2.42;;;22.60;47.30;;;;;;5033837;28;20192;-37
2022/10/26 08:48:28;;;;;;;5.45;3.00;;;22.60;47.30;;;;;;5044610;28;20216;-41
2022/10/26 08:51:02;;;;;;;5.32;3.00;;;22.60;47.30;;;;;;5050974;28;20597;-37
2022/10/26 08:53:39;;;;;;;4.50;2.83;;;22.60;47.30;;;;;;5048801;28;20242;-38
2022/10/26 08:56:16;;;;;;;5.55;2.58;;;22.50;47.30;;;;;;5050738;28;20238;-38
2022/10/26 08:58:55;;;;;;;4.07;2.40;;;22.50;47.50;;;;;;5050732;28;20566;-38
2022/10/26 09:01:26;;;;;;;3.35;2.20;;;22.50;47.50;;;;;;5051236;28;20290;-38
2022/10/26 09:03:59;;;;;;;4.85;2.63;;;22.50;47.60;;;;;;5050740;28;20199;-37
2022/10/26 09:06:37;;;;;;;5.47;2.70;;;22.50;47.70;;;;;;5051053;28;20211;-40
2022/10/26 09:09:13;;;;;;;4.43;2.78;;;22.50;47.80;;;;;;5051150;28;20195;-38
2022/10/26 09:11:55;;;;;;;6.40;2.40;;;22.40;47.80;;;;;;5050661;28;20651;-38
2022/10/26 09:14:39;;;;;;;3.72;2.17;;;22.40;47.70;;;;;;5039205;28;20195;-37
2022/10/26 09:17:19;;;;;;;5.95;2.65;;;22.40;47.70;;;;;;5051557;28;20298;-37
2022/10/26 09:20:11;;;;;;;4.03;2.63;;;22.40;47.70;;;;;;5049985;28;20191;-38
2022/10/26 09:22:51;;;;;;;5.75;2.38;;;22.30;47.70;;;;;;5050046;28;20191;-37
2022/10/26 09:25:24;;;;;;;5.05;2.45;;;22.30;47.70;;;;;;5050708;28;20195;-38
2022/10/26 09:27:59;;;;;;;3.53;2.28;;;22.30;47.60;;;;;;5050212;28;20222;-38
2022/10/26 09:30:32;;;;;;;4.97;2.55;;;22.30;47.70;;;;;;5050413;28;20194;-38
2022/10/26 09:33:05;;;;;;;4.68;2.25;;;22.30;47.70;;;;;;5050365;28;20195;-44
2022/10/26 09:35:45;;;;;;;3.75;2.40;;;22.20;47.60;;;;;;5050165;28;20230;-39
2022/10/26 09:38:23;;;;;;;4.43;2.50;;;22.20;47.70;;;;;;5050423;28;20754;-39
2022/10/26 09:41:01;;;;;;;3.33;2.05;;;22.20;47.70;;;;;;5050860;28;20195;-41
2022/10/26 09:43:39;;;;;;;4.28;2.55;;;22.20;47.80;;;;;;5044046;28;20192;-38
2022/10/26 09:46:17;;;;;;;3.95;2.33;;;22.10;47.70;;;;;;5030528;28;20199;-42
2022/10/26 09:48:52;;;;;;;3.58;2.20;;;22.10;47.70;;;;;;5046938;28;20245;-40
2022/10/26 09:51:25;;;;;;;5.28;2.53;;;22.10;47.70;;;;;;5050769;28;20260;-37
2022/10/26 09:53:59;;;;;;;4.00;2.28;;;22.10;47.70;;;;;;5049608;28;20222;-38
2022/10/26 09:56:32;;;;;;;4.15;2.30;;;22.00;47.70;;;;;;5050274;28;20279;-38
2022/10/26 09:59:06;;;;;;;3.03;2.00;;;22.00;47.70;;;;;;5050055;28;20216;-39
2022/10/26 10:01:39;;;;;;;4.07;2.30;;;22.00;47.70;;;;;;5050279;28;20205;-39
2022/10/26 10:04:21;;;;;;;4.20;2.08;;;22.00;47.70;;;;;;5049983;28;20650;-37
2022/10/26 10:06:53;;;;;;;3.53;2.40;;;22.00;47.70;;;;;;5050336;28;20269;-38
2022/10/26 10:09:25;;;;;;;4.18;2.00;;;22.00;47.70;;;;;;5039048;28;20199;-39
2022/10/26 10:11:57;;;;;;;3.05;2.22;;;22.00;47.70;;;;;;5030240;28;20199;-38
2022/10/26 10:14:30;;;;;;;3.92;1.92;;;21.90;47.80;;;;;;5043044;28;20199;-38
2022/10/26 10:17:07;;;;;;;3.15;2.20;;;21.90;47.80;;;;;;5049823;28;20227;-37
2022/10/26 10:19:39;;;;;;;2.90;2.17;;;21.90;47.80;;;;;;5050354;28;20191;-38
2022/10/26 10:22:21;;;;;;;3.95;2.00;;;21.80;47.80;;;;;;5050496;28;20206;-38
2022/10/26 10:24:58;;;;;;;3.33;1.90;;;21.80;47.80;;;;;;5035183;28;20215;-38
2022/10/26 10:27:29;;;;;;;3.03;1.90;;;21.70;47.80;;;;;;5030531;28;20222;-38
2022/10/26 10:30:22;;;;;;;3.13;1.90;;;21.80;47.80;;;;;;5048579;28;20650;-38
2022/10/26 10:33:07;;;;;;;3.40;1.90;;;21.70;47.80;;;;;;5049863;28;20199;-38
2022/10/26 10:35:39;;;;;;;2.58;1.83;;;21.70;47.80;;;;;;5030726;28;20227;-38
2022/10/26 10:38:18;;;;;;;2.80;1.80;;;21.70;47.70;;;;;;5029515;28;20706;-37
2022/10/26 10:40:54;;;;;;;2.60;2.03;;;21.70;47.80;;;;;;5047461;28;20191;-38
2022/10/26 10:43:25;;;;;;;2.72;2.15;;;21.70;47.80;;;;;;5047439;28;20206;-38
2022/10/26 10:45:59;;;;;;;2.95;1.80;;;21.70;47.80;;;;;;5031940;28;20667;-38
2022/10/26 10:48:31;;;;;;;3.63;1.95;;;21.60;47.80;;;;;;5049243;28;20223;-38
2022/10/26 10:51:04;;;;;;;4.68;2.53;;;21.60;47.90;;;;;;5052954;28;20195;-38
2022/10/26 10:53:38;;;;;;;3.13;1.90;;;21.60;47.90;;;;;;5053253;28;20196;-38
2022/10/26 10:56:40;;;;;;;2.50;1.75;;;21.60;47.90;;;;;;5053203;28;20566;-38
2022/10/26 10:59:38;;;;;;;3.45;1.88;;;21.50;47.90;;;;;;5047598;28;20190;-41
2022/10/26 11:02:52;;;;;;;3.28;2.13;;;21.50;47.80;;;;;;5054030;28;20208;-41
2022/10/26 11:05:36;;;;;;;4.57;1.90;;;21.50;47.80;;;;;;5053289;28;20278;-39
2022/10/26 11:08:11;;;;;;;3.15;1.95;;;21.50;47.80;;;;;;5053388;28;20617;-38
2022/10/26 11:10:45;;;;;;;3.08;1.90;;;21.50;47.80;;;;;;5034343;28;20195;-38
2022/10/26 11:13:23;;;;;;;2.78;1.70;;;21.40;47.80;;;;;;5033972;28;20196;-46
2022/10/26 11:16:01;;;;;;;3.25;2.03;;;21.40;47.80;;;;;;5039000;28;20215;-38
2022/10/26 11:18:37;;;;;;;2.55;1.70;;;21.40;47.80;;;;;;5052193;28;20581;-38
2022/10/26 11:21:21;;;;;;;2.08;1.60;;;21.40;47.90;;;;;;5052035;28;20198;-39
2022/10/26 11:23:57;;;;;;;2.83;1.73;;;21.30;47.90;;;;;;5051733;28;20211;-38
2022/10/26 11:26:34;;;;;;;2.83;1.80;;;21.30;47.90;;;;;;5051413;28;20222;-38
2022/10/26 11:29:08;;;;;;;3.17;1.80;;;21.30;47.90;;;;;;5051575;28;20203;-37
2022/10/26 11:31:50;;;;;;;2.35;1.90;;;21.30;47.90;;;;;;5052173;28;20199;-38
2022/10/26 11:34:29;;;;;;;2.95;1.90;;;21.20;47.90;;;;;;5052310;28;20249;-38
2022/10/26 11:37:07;;;;;;;2.53;1.80;;;21.20;47.90;;;;;;5052153;28;20591;-38
2022/10/26 11:39:44;;;;;;;2.78;1.70;;;21.20;47.90;;;;;;5051560;28;20200;-38
2022/10/26 11:42:26;;;;;;;2.47;1.52;;;21.20;47.90;;;;;;5032068;28;20203;-38
2022/10/26 11:45:04;;;;;;;2.50;1.48;;;21.20;47.90;;;;;;5032240;28;20648;-38
2022/10/26 11:47:41;;;;;;;3.47;1.85;;;21.20;47.90;;;;;;5031863;28;20338;-37
2022/10/26 11:50:18;;;;;;;2.65;1.50;;;21.20;47.90;;;;;;5031690;28;20200;-39
2022/10/26 11:52:53;;;;;;;2.55;1.67;;;21.20;47.80;;;;;;5031529;28;20203;-37
2022/10/26 11:55:25;;;;;;;3.38;1.80;;;21.10;47.80;;;;;;5037582;28;20202;-40
2022/10/26 11:57:57;;;;;;;1.92;1.50;;;21.10;47.90;;;;;;5051496;28;20255;-41
2022/10/26 12:00:29;;;;;;;2.50;1.70;;;21.10;47.90;;;;;;5051412;28;20283;-38
2022/10/26 12:03:04;;;;;;;2.45;1.30;;;21.00;47.90;;;;;;5051131;28;20204;-38
2022/10/26 12:05:44;;;;;;;2.72;1.75;;;21.00;47.90;;;;;;5051305;28;20195;-37
2022/10/26 12:08:20;;;;;;;3.72;1.80;;;21.00;47.90;;;;;;5051533;28;20633;-38
2022/10/26 12:10:57;;;;;;;3.67;1.88;;;21.00;47.90;;;;;;5051092;28;20199;-37
2022/10/26 12:13:33;;;;;;;3.03;1.60;;;21.00;47.90;;;;;;5051833;28;20605;-39
2022/10/26 12:16:12;;;;;;;2.13;1.48;;;20.90;47.90;;;;;;5051137;28;20222;-37
2022/10/26 12:19:00;;;;;;;3.92;1.83;;;21.00;48.00;;;;;;5051220;28;20195;-38
2022/10/26 12:21:32;;;;;;;2.95;1.40;;;20.90;47.80;;;;;;5051207;28;20199;-37
2022/10/26 12:24:27;;;;;;;2.30;1.33;;;20.90;47.90;;;;;;5051247;28;20192;-40
2022/10/26 12:26:59;;;;;;;2.60;1.73;;;20.90;47.90;;;;;;5051052;28;20221;-37
2022/10/26 12:29:37;;;;;;;1.80;1.65;;;20.90;47.90;;;;;;5051127;28;20206;-38
2022/10/26 12:32:49;;;;;;;2.45;1.50;;;20.90;47.90;;;;;;5050468;28;20221;-37
2022/10/26 12:35:37;;;;;;;1.73;1.30;;;20.80;47.90;;;;;;5030733;28;20199;-38
2022/10/26 12:38:49;;;;;;;2.38;1.40;;;20.80;47.90;;;;;;5030563;28;20303;-38
2022/10/26 12:41:29;;;;;;;1.92;1.30;;;20.80;47.90;;;;;;5041791;28;20202;-37
2022/10/26 12:44:03;;;;;;;2.85;1.75;;;20.80;47.90;;;;;;5050649;28;20202;-41
2022/10/26 12:46:41;;;;;;;2.10;1.60;;;20.70;47.90;;;;;;5050937;28;20678;-38
2022/10/26 12:49:58;;;;;;;2.88;1.60;;;20.70;48.00;;;;;;5050974;28;20199;-38
2022/10/26 12:52:40;;;;;;;2.28;1.48;;;20.70;48.00;;;;;;5050229;28;20643;-40
2022/10/26 12:55:39;;;;;;;1.92;1.50;;;20.70;47.90;;;;;;5049801;28;20679;-37
2022/10/26 12:58:36;;;;;;;3.33;1.83;;;20.70;47.90;;;;;;5046953;28;20219;-37
2022/10/26 13:01:33;;;;;;;2.22;1.50;;;20.70;47.90;;;;;;5049985;28;20207;-40
2022/10/26 13:04:21;;;;;;;3.53;1.67;;;20.70;48.00;;;;;;5050105;28;20198;-38
2022/10/26 13:07:12;;;;;;;2.05;1.40;;;20.60;48.00;;;;;;5049941;28;20258;-43
2022/10/26 13:09:50;;;;;;;2.63;1.60;;;20.60;48.00;;;;;;5050188;28;20553;-38
2022/10/26 13:12:29;;;;;;;2.55;1.55;;;20.60;48.00;;;;;;5049446;28;20199;-42
2022/10/26 13:15:06;;;;;;;2.83;1.58;;;20.60;48.00;;;;;;5050426;28;20195;-38
2022/10/26 13:17:37;;;;;;;1.77;1.23;;;20.50;48.00;;;;;;5050116;28;20288;-38
2022/10/26 13:20:17;;;;;;;1.75;1.40;;;20.50;48.10;;;;;;5049094;28;20199;-40
2022/10/26 13:22:49;;;;;;;2.65;1.63;;;20.50;48.00;;;;;;5050458;28;20200;-38
2022/10/26 13:25:26;;;;;;;1.67;1.33;;;20.50;48.00;;;;;;5049706;28;20566;-38
2022/10/26 13:28:08;;;;;;;1.98;1.30;;;20.50;48.00;;;;;;5049427;28;20215;-38